Terminal Aerodrome Forecast
Issued by NWS

Home | Current Version | Previous Version | Text Only | Print | Product List | Glossary On
Versions: 1 2 3 4 5 6 7 8 9 10 11 12
000
FTUS42 TJSJ 250500
TAFISX
TAF
TISX 250535Z 2506/2606 VRB05KT P6SM FEW025
     FM251300 13010KT P6SM SCT025
     FM252100 08006KT P6SM FEW025=

USA.gov is the U.S. government's official web portal to all federal, state and local government web resources and services.